Time;durP1;ratioP1;P1;durP2;ratioP2;P2;SDS_P1;SDS_P2;PMS_P1;PMS_P2;Temp;Humidity;BMP_temperature;BMP_pressure;BME280_temperature;BME280_humidity;BME280_pressure;Samples;Min_cycle;Max_cycle;Signal;HPM_P1;HPM_P2
2022/06/06 00:02:23;;;;;;;1.20;1.10;;;;;;;16.32;73.11;96842.22;4935567;29;20048;-78
2022/06/06 00:04:50;;;;;;;2.13;1.17;;;;;;;16.33;72.78;96846.44;4935227;29;20082;-78
2022/06/06 00:07:20;;;;;;;2.78;1.40;;;;;;;16.35;73.66;96841.78;4935746;29;20052;-79
2022/06/06 00:09:48;;;;;;;3.05;1.27;;;;;;;16.44;75.24;96849.22;4935130;29;20052;-79
2022/06/06 00:12:16;;;;;;;1.83;1.48;;;;;;;16.44;73.28;96833.41;4935089;29;20505;-79
2022/06/06 00:14:45;;;;;;;1.58;1.30;;;;;;;16.41;73.16;96840.94;4935035;29;20083;-79
2022/06/06 00:17:13;;;;;;;1.83;1.48;;;;;;;16.40;73.70;96832.22;4935054;29;20051;-80
2022/06/06 00:19:41;;;;;;;2.03;1.40;;;;;;;16.41;73.12;96827.75;4935376;29;20139;-79
2022/06/06 00:22:09;;;;;;;4.07;1.33;;;;;;;16.36;72.47;96835.50;4935329;29;20054;-79
2022/06/06 00:24:38;;;;;;;1.88;1.55;;;;;;;16.26;72.80;96833.31;4934994;29;20051;-79
2022/06/06 00:27:06;;;;;;;2.20;1.45;;;;;;;16.20;72.72;96837.63;4935380;29;20051;-79
2022/06/06 00:29:35;;;;;;;2.22;1.38;;;;;;;16.17;73.03;96834.59;4934975;29;20520;-79
2022/06/06 00:34:50;;;;;;;1.75;1.58;;;;;;;16.06;72.90;96826.34;4937050;29;20557;-80
2022/06/06 00:37:20;;;;;;;1.30;1.20;;;;;;;16.02;73.36;96822.50;4935062;29;20099;-79
2022/06/06 00:39:49;;;;;;;2.78;1.40;;;;;;;16.05;73.56;96819.47;4934807;29;20134;-79
2022/06/06 00:42:22;;;;;;;4.97;1.40;;;;;;;16.08;73.25;96827.97;4934735;29;20047;-79
2022/06/06 00:45:24;;;;;;;1.88;1.35;;;;;;;16.10;73.37;96825.94;4935112;29;20059;-79
2022/06/06 00:47:56;;;;;;;5.15;1.65;;;;;;;16.08;73.01;96818.25;4932691;29;20052;-79
2022/06/06 00:50:27;;;;;;;;;;;;;;;16.10;73.12;96826.75;4935023;29;20075;-79
2022/06/06 00:52:56;;;;;;;1.90;1.58;;;;;;;16.02;72.83;96825.16;4934733;29;20006;-79
2022/06/06 00:55:29;;;;;;;2.53;1.88;;;;;;;15.98;73.24;96820.50;4935428;29;20079;-79
2022/06/06 00:58:01;;;;;;;3.15;1.85;;;;;;;16.01;74.55;96818.28;4935018;29;20502;-79
2022/06/06 01:00:30;;;;;;;2.03;1.60;;;;;;;16.01;73.21;96820.13;4934546;29;20052;-79
2022/06/06 01:03:01;;;;;;;4.20;1.70;;;;;;;15.96;73.02;96810.22;4934659;29;20068;-79
2022/06/06 01:05:29;;;;;;;3.85;2.08;;;;;;;15.92;73.21;96814.28;4934532;29;20056;-79
2022/06/06 01:07:56;;;;;;;2.80;2.30;;;;;;;15.85;73.39;96808.22;4934562;29;20088;-79
2022/06/06 01:10:25;;;;;;;4.63;1.85;;;;;;;15.78;73.65;96804.84;4934378;29;20136;-79
2022/06/06 01:12:55;;;;;;;3.33;2.22;;;;;;;15.76;73.90;96798.97;4934617;29;20138;-78
2022/06/06 01:15:25;;;;;;;3.60;1.85;;;;;;;15.75;74.01;96807.88;4934681;29;20138;-79
2022/06/06 01:18:05;;;;;;;2.67;2.28;;;;;;;15.75;74.49;96811.31;4934437;29;20138;-79
2022/06/06 01:20:59;;;;;;;3.83;1.75;;;;;;;15.79;74.65;96814.34;4934516;29;20576;-79
2022/06/06 01:23:49;;;;;;;3.10;2.22;;;;;;;15.78;74.48;96807.47;4934842;29;20065;-79
2022/06/06 01:26:38;;;;;;;2.47;2.28;;;;;;;15.76;74.89;96812.13;4934672;29;20065;-79
2022/06/06 01:29:10;;;;;;;3.90;2.13;;;;;;;15.76;75.13;96807.66;4934843;29;20091;-79
2022/06/06 01:31:43;;;;;;;1.80;1.70;;;;;;;15.81;75.79;96805.22;4936486;29;20142;-80
2022/06/06 01:34:14;;;;;;;2.08;1.80;;;;;;;15.88;75.32;96807.81;4937189;29;20055;-79
2022/06/06 01:36:42;;;;;;;3.65;1.83;;;;;;;15.89;74.52;96804.16;4934361;29;20059;-79
2022/06/06 01:39:12;;;;;;;2.67;2.00;;;;;;;15.90;74.24;96812.88;4934585;29;20059;-79
2022/06/06 01:41:49;;;;;;;4.07;1.90;;;;;;;15.83;74.09;96808.47;4934331;29;20087;-79
2022/06/06 01:44:26;;;;;;;3.38;2.00;;;;;;;15.76;74.35;96802.41;4936372;29;20048;-78
2022/06/06 01:46:55;;;;;;;5.40;2.53;;;;;;;15.71;74.49;96801.41;4937623;29;20140;-79
2022/06/06 01:49:24;;;;;;;3.33;2.00;;;;;;;15.66;74.43;96800.19;4951467;29;20401;-80
2022/06/06 01:52:00;;;;;;;3.78;2.13;;;;;;;15.63;74.57;96798.00;4953252;29;20071;-80
2022/06/06 01:54:28;;;;;;;2.25;1.90;;;;;;;15.61;74.46;96796.56;4939934;29;20048;-79
2022/06/06 01:56:56;;;;;;;4.10;2.15;;;;;;;15.60;74.58;96795.78;4938225;29;20134;-79
2022/06/06 01:59:25;;;;;;;3.97;2.40;;;;;;;15.60;74.77;96798.41;4937603;29;20506;-79
2022/06/06 02:01:53;;;;;;;3.20;2.10;;;;;;;15.61;74.91;96797.41;4937633;29;20060;-79
2022/06/06 02:04:20;;;;;;;2.30;2.10;;;;;;;15.62;74.89;96799.00;4937649;29;20090;-79
2022/06/06 02:06:48;;;;;;;11.20;2.63;;;;;;;15.63;74.88;96799.81;4937518;29;20143;-79
2022/06/06 02:09:16;;;;;;;6.00;2.47;;;;;;;15.62;74.67;96809.53;4937282;29;20059;-78
2022/06/06 02:11:43;;;;;;;2.75;2.53;;;;;;;15.58;74.82;96808.31;4937162;29;20163;-79
2022/06/06 02:14:11;;;;;;;3.55;2.50;;;;;;;15.58;74.97;96812.78;4937194;29;20055;-79
2022/06/06 02:16:41;;;;;;;3.55;2.50;;;;;;;15.56;75.23;96815.59;4937352;29;20098;-79
2022/06/06 02:19:11;;;;;;;3.95;2.08;;;;;;;15.55;74.68;96806.13;4937253;29;20106;-79
2022/06/06 02:21:38;;;;;;;3.42;2.47;;;;;;;15.52;74.68;96819.66;4938277;29;20114;-79
2022/06/06 02:24:06;;;;;;;4.22;2.55;;;;;;;15.52;74.99;96824.13;4937190;29;20058;-79
2022/06/06 02:26:34;;;;;;;4.00;2.58;;;;;;;15.51;75.07;96818.06;4937002;29;20138;-79
2022/06/06 02:29:05;;;;;;;6.07;2.85;;;;;;;15.50;74.95;96821.69;4937526;29;20146;-79
2022/06/06 02:31:37;;;;;;;4.63;2.13;;;;;;;15.51;75.00;96819.88;4936909;29;20107;-79
2022/06/06 02:34:07;;;;;;;2.65;2.20;;;;;;;15.49;75.02;96814.81;4940996;29;20130;-80
2022/06/06 02:36:36;;;;;;;3.13;2.78;;;;;;;15.49;75.02;96811.41;4937334;29;20111;-79
2022/06/06 02:39:06;;;;;;;3.43;2.30;;;;;;;15.45;74.97;96814.41;4937373;29;20058;-79
2022/06/06 02:41:34;;;;;;;3.55;2.40;;;;;;;15.44;74.81;96818.09;4936569;29;20054;-78
2022/06/06 02:44:01;;;;;;;2.95;2.47;;;;;;;15.47;74.85;96816.84;4936802;29;20047;-79
2022/06/06 02:46:29;;;;;;;2.67;2.33;;;;;;;15.49;74.70;96816.66;4937447;29;20138;-79
2022/06/06 02:48:57;;;;;;;2.65;2.45;;;;;;;15.51;74.53;96818.06;4936734;29;20054;-79
2022/06/06 02:51:25;;;;;;;3.78;2.70;;;;;;;15.54;74.39;96816.84;4936213;29;20056;-79
2022/06/06 02:53:53;;;;;;;3.25;2.92;;;;;;;15.55;74.13;96823.72;4936440;29;20078;-79
2022/06/06 02:56:21;;;;;;;6.70;2.47;;;;;;;15.56;74.72;96830.56;4936666;29;20079;-80
2022/06/06 02:58:48;;;;;;;3.38;2.38;;;;;;;15.57;73.98;96833.00;4936888;29;20051;-79
2022/06/06 03:01:16;;;;;;;2.42;2.22;;;;;;;15.60;74.50;96831.78;4936120;29;20127;-78
2022/06/06 03:03:44;;;;;;;10.30;2.53;;;;;;;15.66;75.24;96830.97;4936485;29;20516;-79
2022/06/06 03:06:27;;;;;;;3.95;2.20;;;;;;;15.69;74.08;96827.91;4936043;29;20388;-79
2022/06/06 03:09:01;;;;;;;;;;;;;;;15.73;75.07;96825.69;4936966;29;20087;-79
2022/06/06 03:11:49;;;;;;;2.33;1.80;;;;;;;15.82;78.47;96829.69;4936104;29;19933;-79
2022/06/06 03:14:35;;;;;;;4.28;2.50;;;;;;;15.88;79.36;96828.88;4936555;29;20059;-79
2022/06/06 03:23:05;;;;;;;2.58;2.38;;;;;;;15.90;77.23;96829.47;4936252;29;20055;-79
2022/06/06 03:25:42;;;;;;;2.92;2.20;;;;;;;15.86;74.34;96831.69;4936122;29;20139;-79
2022/06/06 03:28:17;;;;;;;4.20;2.53;;;;;;;15.81;74.18;96828.09;4936031;29;20106;-79
2022/06/06 03:30:56;;;;;;;2.67;2.45;;;;;;;15.79;74.52;96836.19;4935570;29;20052;-79
2022/06/06 03:33:37;;;;;;;4.68;2.30;;;;;;;15.86;77.97;96846.69;4940016;29;20152;-80
2022/06/06 03:36:12;;;;;;;5.43;3.30;;;;;;;15.87;76.61;96845.66;4936776;29;20135;-79
2022/06/06 03:38:46;;;;;;;2.35;2.05;;;;;;;15.84;74.89;96848.72;4935892;29;20054;-79
2022/06/06 03:41:22;;;;;;;2.95;2.45;;;;;;;15.80;75.84;96858.84;4935400;29;20138;-79
2022/06/06 03:43:56;;;;;;;4.50;2.17;;;;;;;15.72;73.68;96853.00;4935916;29;20138;-79
2022/06/06 03:46:30;;;;;;;2.28;2.17;;;;;;;15.61;73.61;96855.25;4935841;29;20052;-78
2022/06/06 03:49:13;;;;;;;3.97;2.40;;;;;;;15.49;73.89;96856.91;4936068;29;20063;-79
2022/06/06 03:51:52;;;;;;;2.53;2.33;;;;;;;15.44;74.22;96859.34;4935219;29;20058;-79
2022/06/06 03:54:30;;;;;;;2.33;2.17;;;;;;;15.41;74.26;96857.09;4935864;29;20051;-79
2022/06/06 03:57:10;;;;;;;2.95;2.33;;;;;;;15.36;74.45;96854.28;4935756;29;20134;-79
2022/06/06 03:59:38;;;;;;;2.50;2.30;;;;;;;15.36;74.84;96862.19;4935618;29;20051;-78
2022/06/06 04:02:09;;;;;;;4.53;2.50;;;;;;;15.37;74.50;96858.53;4935129;29;20093;-79
2022/06/06 04:04:36;;;;;;;2.83;2.60;;;;;;;15.37;74.34;96859.34;4935434;29;20401;-79
2022/06/06 04:07:04;;;;;;;2.65;2.45;;;;;;;15.36;74.57;96862.97;4934815;29;20055;-79
2022/06/06 04:09:34;;;;;;;3.28;2.70;;;;;;;15.37;74.80;96874.28;4935328;29;20059;-79
2022/06/06 04:12:15;;;;;;;3.22;1.88;;;;;;;15.41;75.46;96878.13;4935022;29;20099;-79
2022/06/06 04:14:51;;;;;;;3.77;2.67;;;;;;;15.43;74.80;96863.75;4935361;29;20062;-78
2022/06/06 04:17:29;;;;;;;3.75;2.20;;;;;;;15.45;74.85;96879.34;4935315;29;20091;-79
2022/06/06 04:20:07;;;;;;;4.90;2.85;;;;;;;15.48;75.83;96871.06;4935058;29;20051;-78
2022/06/06 04:22:45;;;;;;;3.60;2.55;;;;;;;15.53;75.44;96881.75;4935068;29;20151;-79
2022/06/06 04:25:25;;;;;;;3.58;2.45;;;;;;;15.58;75.55;96879.31;4935005;29;20051;-79
2022/06/06 04:28:03;;;;;;;7.13;2.58;;;;;;;15.61;75.11;96873.66;4935248;29;20074;-79
2022/06/06 04:30:39;;;;;;;3.75;2.40;;;;;;;15.59;74.99;96873.06;4934881;29;20478;-80
2022/06/06 04:33:18;;;;;;;3.30;2.38;;;;;;;15.60;75.51;96876.47;4937341;29;20501;-80
2022/06/06 04:35:59;;;;;;;2.75;2.38;;;;;;;15.63;75.54;96870.78;4936852;29;20052;-79
2022/06/06 04:38:32;;;;;;;4.57;2.60;;;;;;;15.64;75.05;96875.88;4935232;29;20051;-79
2022/06/06 04:41:12;;;;;;;2.90;2.65;;;;;;;15.65;75.52;96869.59;4934781;29;20059;-78
2022/06/06 04:43:49;;;;;;;10.82;2.67;;;;;;;15.66;75.57;96876.47;4934993;29;20142;-79
2022/06/06 04:46:22;;;;;;;2.47;2.35;;;;;;;15.68;75.68;96878.06;4934957;29;20514;-79
2022/06/06 04:48:52;;;;;;;9.70;2.80;;;;;;;15.69;75.68;96880.50;4935030;29;20061;-79
2022/06/06 04:51:22;;;;;;;3.38;2.67;;;;;;;15.72;76.16;96876.66;4934618;29;20122;-80
2022/06/06 04:53:54;;;;;;;3.13;2.53;;;;;;;15.75;76.55;96877.06;4934846;29;20126;-79
2022/06/06 04:56:22;;;;;;;4.20;2.40;;;;;;;15.77;76.60;96879.50;4934993;29;20581;-79
2022/06/06 04:58:55;;;;;;;2.58;2.22;;;;;;;15.81;76.88;96885.97;4940432;29;20570;-80
2022/06/06 05:01:24;;;;;;;3.90;2.63;;;;;;;15.85;77.04;96876.63;4949114;29;20522;-80
2022/06/06 05:03:52;;;;;;;2.67;2.47;;;;;;;15.90;76.98;96879.47;4943427;29;20212;-80
2022/06/06 05:09:33;;;;;;;2.87;2.67;;;;;;;16.01;76.58;96878.78;5119771;23;20036;-80
2022/06/06 05:12:52;;;;;;;3.22;2.47;;;;;;;16.06;76.96;96884.22;4952418;28;20091;-83
2022/06/06 05:16:01;;;;;;;6.40;3.10;;;;;;;16.17;79.95;96885.41;4938773;29;20036;-80
2022/06/06 05:38:16;;;;;;;2.70;2.40;;;;;;;16.70;77.38;96900.06;4961867;28;20143;-79
2022/06/06 05:52:24;;;;;;;3.13;2.60;;;;;;;16.92;73.88;96905.03;5048699;23;20043;-82
2022/06/06 06:03:16;;;;;;;4.90;3.65;;;;;;;17.19;77.20;96903.00;5056036;23;20055;-79
2022/06/06 06:06:47;;;;;;;5.30;4.07;;;;;;;17.29;77.11;96909.41;4962788;29;20103;-80
2022/06/06 07:52:38;;;;;;;9.35;6.88;;;;;;;19.39;68.32;96924.81;4565551;23;20086;-81
2022/06/06 07:55:15;;;;;;;16.65;12.85;;;;;;;19.44;67.18;96921.47;4947336;29;20510;-79
2022/06/06 07:57:53;;;;;;;9.45;6.22;;;;;;;19.51;67.21;96920.31;4947456;29;20536;-80
2022/06/06 08:00:25;;;;;;;4.03;3.42;;;;;;;19.59;66.65;96911.25;4947498;29;20485;-82
2022/06/06 08:02:58;;;;;;;7.05;4.47;;;;;;;19.66;66.49;96917.22;4947417;29;20058;-79
2022/06/06 08:05:45;;;;;;;5.13;4.50;;;;;;;19.72;65.47;96911.03;4947101;29;20462;-78
2022/06/06 08:08:24;;;;;;;3.80;3.40;;;;;;;19.81;65.99;96908.00;4949211;29;20452;-83
2022/06/06 08:10:53;;;;;;;4.85;2.88;;;;;;;19.87;65.39;96922.97;4950641;29;20119;-82
2022/06/06 08:13:32;;;;;;;3.00;2.58;;;;;;;19.95;64.98;96914.66;4944260;29;20047;-81
2022/06/06 08:16:17;;;;;;;3.15;2.75;;;;;;;20.02;64.11;96914.53;4950871;29;20135;-82
2022/06/06 08:19:08;;;;;;;5.25;2.85;;;;;;;20.11;65.42;96919.22;4950492;29;20051;-81
2022/06/06 08:21:39;;;;;;;3.47;2.83;;;;;;;20.17;64.69;96912.19;4950158;29;20056;-80
2022/06/06 08:24:12;;;;;;;3.63;3.05;;;;;;;20.25;65.46;96918.97;4949767;29;20055;-80
2022/06/06 08:27:01;;;;;;;3.10;2.67;;;;;;;20.33;63.66;96911.47;4948930;29;20075;-79
2022/06/06 08:29:31;;;;;;;2.70;2.42;;;;;;;20.40;63.88;96911.31;4948354;29;20059;-80
2022/06/06 08:31:58;;;;;;;4.00;3.05;;;;;;;20.49;63.44;96915.19;4947661;29;20075;-81
2022/06/06 08:34:26;;;;;;;8.40;2.72;;;;;;;20.58;64.16;96907.69;4948332;29;20135;-81
2022/06/06 08:37:07;;;;;;;2.60;2.40;;;;;;;20.65;63.58;96907.53;4949547;29;20106;-83
2022/06/06 08:39:45;;;;;;;3.45;2.65;;;;;;;20.71;61.31;96903.94;4949190;29;20115;-80
2022/06/06 08:42:29;;;;;;;3.05;2.55;;;;;;;20.79;61.51;96898.22;4948438;29;20078;-80
2022/06/06 08:45:17;;;;;;;7.38;4.03;;;;;;;20.86;61.45;96906.84;4947746;29;20131;-81
2022/06/06 08:48:02;;;;;;;4.25;3.70;;;;;;;20.94;60.70;96909.09;4947076;29;20059;-82
2022/06/06 08:50:50;;;;;;;31.33;22.00;;;;;;;20.99;60.66;96903.88;4946305;29;20055;-80
2022/06/06 08:53:51;;;;;;;10.30;7.28;;;;;;;21.02;58.53;96904.47;4948357;29;20055;-80
2022/06/06 08:56:38;;;;;;;10.95;7.78;;;;;;;21.04;59.53;96907.66;4950249;29;20083;-80
2022/06/06 08:59:41;;;;;;;6.90;5.13;;;;;;;21.06;57.92;96910.88;4949246;29;20100;-80
2022/06/06 09:02:34;;;;;;;4.68;3.33;;;;;;;21.11;57.32;96905.66;4947858;29;20047;-79
2022/06/06 09:05:32;;;;;;;5.50;3.45;;;;;;;21.15;57.96;96912.88;4948538;29;20093;-79
2022/06/06 09:08:24;;;;;;;4.07;2.17;;;;;;;21.18;56.93;96895.69;4947704;29;20142;-80
2022/06/06 09:11:34;;;;;;;4.38;1.90;;;;;;;21.22;57.42;96891.50;4947821;29;20115;-81
2022/06/06 09:14:33;;;;;;;3.15;1.95;;;;;;;21.28;56.96;96893.19;4949710;29;20130;-80
2022/06/06 09:17:35;;;;;;;2.05;1.85;;;;;;;21.29;55.67;96892.13;4950165;29;20079;-79
2022/06/06 09:20:40;;;;;;;1.80;1.70;;;;;;;21.35;55.85;96891.16;4949431;29;20060;-81
2022/06/06 09:23:40;;;;;;;5.60;4.00;;;;;;;21.40;55.62;96890.44;4950928;29;20083;-79
2022/06/06 09:26:24;;;;;;;8.30;5.55;;;;;;;21.45;57.00;96895.84;4900445;29;20142;-78
2022/06/06 09:29:48;;;;;;;5.45;3.03;;;;;;;21.54;56.31;96888.28;4948180;29;20115;-79
2022/06/06 09:32:39;;;;;;;2.95;2.08;;;;;;;21.59;55.92;96885.69;4946968;29;20493;-79
2022/06/06 09:35:31;;;;;;;3.60;2.10;;;;;;;21.65;55.74;96895.34;4948777;29;20090;-83
2022/06/06 09:38:14;;;;;;;2.10;1.70;;;;;;;21.68;53.94;96881.56;4952945;29;20067;-82
2022/06/06 09:40:58;;;;;;;2.20;1.75;;;;;;;21.70;53.08;96892.72;4953133;29;20116;-82
2022/06/06 09:43:40;;;;;;;3.55;1.77;;;;;;;21.73;51.73;96878.16;4951758;29;20059;-81
2022/06/06 09:46:54;;;;;;;3.25;1.77;;;;;;;21.79;52.38;96877.19;4946616;29;20494;-79
2022/06/06 09:49:48;;;;;;;1.55;1.45;;;;;;;21.82;51.32;96879.34;4947399;29;20059;-80
2022/06/06 09:52:42;;;;;;;1.58;1.38;;;;;;;21.87;51.91;96873.31;4947695;29;20119;-81
2022/06/06 09:59:03;;;;;;;2.35;1.40;;;;;;;21.99;50.92;96873.97;4947773;29;20110;-83
2022/06/06 10:01:53;;;;;;;6.80;4.72;;;;;;;22.06;50.44;96876.44;4947483;29;20051;-80
2022/06/06 10:05:00;;;;;;;4.00;2.60;;;;;;;22.13;50.75;96869.88;4938112;29;20469;-80
2022/06/06 10:08:02;;;;;;;3.33;1.55;;;;;;;22.19;49.77;96871.56;4947317;29;20147;-78
2022/06/06 10:11:10;;;;;;;4.00;1.58;;;;;;;22.24;50.81;96862.03;4925446;29;20103;-81
2022/06/06 10:13:55;;;;;;;1.27;1.17;;;;;;;22.28;51.37;96860.50;4947259;29;20080;-78
2022/06/06 10:16:48;;;;;;;2.47;1.80;;;;;;;22.31;51.19;96860.00;4947123;29;20112;-80
2022/06/06 10:19:30;;;;;;;1.90;1.80;;;;;;;22.34;49.93;96854.19;4937794;29;20052;-79
2022/06/06 10:22:29;;;;;;;1.60;1.48;;;;;;;22.40;50.79;96855.84;4946462;29;20138;-79
2022/06/06 10:25:16;;;;;;;3.20;1.83;;;;;;;22.45;49.64;96861.19;4942766;29;20525;-81
2022/06/06 10:28:04;;;;;;;2.20;1.80;;;;;;;22.51;49.53;96860.19;4947210;29;20130;-81
2022/06/06 10:30:42;;;;;;;1.70;1.60;;;;;;;22.57;49.78;96858.41;4947059;29;20055;-78
2022/06/06 10:33:53;;;;;;;1.50;1.40;;;;;;;22.65;49.15;96855.25;4947226;29;20048;-80
2022/06/06 10:36:36;;;;;;;2.50;1.70;;;;;;;22.72;50.62;96852.41;4947673;29;20490;-82
2022/06/06 10:39:22;;;;;;;1.70;1.60;;;;;;;22.78;48.80;96851.38;4949871;29;20071;-80
2022/06/06 10:42:11;;;;;;;1.30;1.20;;;;;;;22.84;48.53;96843.19;4949327;29;20064;-81
2022/06/06 10:45:24;;;;;;;1.70;1.60;;;;;;;22.92;49.10;96849.13;4948967;29;20063;-80
2022/06/06 10:48:27;;;;;;;13.93;12.40;;;;;;;22.96;47.56;96839.59;4948305;29;20119;-81
2022/06/06 10:54:25;;;;;;;19.20;14.57;;;;;;;23.02;47.90;96842.06;4949445;29;20048;-82
2022/06/06 10:57:18;;;;;;;3.60;2.72;;;;;;;23.09;49.73;96838.34;4947279;29;20533;-82
2022/06/06 11:00:05;;;;;;;1.67;1.55;;;;;;;23.15;46.44;96842.66;4949229;29;20130;-83
2022/06/06 11:03:06;;;;;;;1.30;1.17;;;;;;;23.21;46.18;96831.78;4948242;29;20430;-80
2022/06/06 11:05:57;;;;;;;1.67;1.58;;;;;;;23.25;46.84;96832.06;4949982;29;20054;-81
2022/06/06 11:08:42;;;;;;;7.68;6.38;;;;;;;23.29;44.96;96832.38;4948276;29;20078;-81
2022/06/06 11:11:49;;;;;;;1.90;1.48;;;;;;;23.34;45.89;96827.88;4947893;29;20425;-80
2022/06/06 11:14:28;;;;;;;3.00;2.47;;;;;;;23.38;45.04;96820.19;4926381;29;20083;-81
2022/06/06 11:17:21;;;;;;;3.80;3.22;;;;;;;23.44;45.81;96814.63;4947832;29;20078;-85
2022/06/06 11:20:10;;;;;;;2.60;2.28;;;;;;;23.51;45.31;96813.59;4950183;29;20146;-82
2022/06/06 11:22:41;;;;;;;1.30;1.20;;;;;;;23.55;45.76;96826.13;4948283;29;20486;-84
2022/06/06 11:25:14;;;;;;;1.45;1.35;;;;;;;23.57;45.18;96812.53;4948399;29;20553;-84
2022/06/06 11:28:01;;;;;;;7.25;6.25;;;;;;;23.60;45.46;96812.03;4948294;29;20556;-82
2022/06/06 11:30:53;;;;;;;8.55;5.65;;;;;;;23.67;45.35;96812.59;4947673;29;20055;-80
2022/06/06 11:33:50;;;;;;;2.63;1.50;;;;;;;23.74;45.45;96825.66;4948398;29;20059;-82
2022/06/06 11:36:50;;;;;;;27.95;19.08;;;;;;;23.79;45.83;96810.53;4949743;29;20059;-82
2022/06/06 11:39:39;;;;;;;6.25;4.20;;;;;;;23.87;45.48;96816.41;4947347;29;20087;-83
2022/06/06 11:42:27;;;;;;;2.78;1.80;;;;;;;23.91;44.54;96804.97;4933482;29;20031;-83
2022/06/06 11:45:16;;;;;;;1.42;1.33;;;;;;;23.96;45.42;96791.66;4948230;29;20079;-81
2022/06/06 11:47:54;;;;;;;10.93;7.68;;;;;;;24.03;44.05;96794.88;4947914;29;20502;-80
2022/06/06 11:51:06;;;;;;;5.00;3.75;;;;;;;24.06;43.58;96788.22;4944103;29;20082;-81
2022/06/06 11:54:22;;;;;;;2.33;2.13;;;;;;;24.06;43.32;96786.34;4927136;29;20127;-81
2022/06/06 11:57:34;;;;;;;2.72;1.35;;;;;;;24.08;43.76;96786.09;4936391;29;20481;-81
2022/06/06 12:00:12;;;;;;;1.35;1.25;;;;;;;24.09;44.06;96781.56;4902597;29;20047;-81
2022/06/06 12:03:13;;;;;;;1.70;1.50;;;;;;;24.12;44.44;96781.84;4934503;29;20064;-84
2022/06/06 12:06:09;;;;;;;1.52;1.30;;;;;;;24.11;43.81;96779.44;4945390;29;20057;-81
2022/06/06 12:09:00;;;;;;;2.15;1.27;;;;;;;24.10;43.39;96783.19;4939398;29;20131;-78
2022/06/06 12:11:52;;;;;;;1.40;1.15;;;;;;;24.08;41.61;96778.09;4929497;29;20125;-82
2022/06/06 12:14:40;;;;;;;1.45;0.98;;;;;;;24.03;41.58;96775.41;4943503;29;20044;-79
2022/06/06 12:17:13;;;;;;;1.55;1.08;;;;;;;24.02;41.60;96785.28;4934930;29;20082;-82
2022/06/06 12:20:14;;;;;;;1.30;1.20;;;;;;;24.02;42.37;96771.94;4938550;29;20060;-79
2022/06/06 12:23:00;;;;;;;5.40;4.07;;;;;;;24.05;43.15;96786.59;4932416;29;20056;-79
2022/06/06 12:25:50;;;;;;;4.15;2.47;;;;;;;24.06;43.92;96766.91;4933859;29;20135;-79
2022/06/06 12:28:51;;;;;;;3.38;1.55;;;;;;;24.10;43.06;96770.66;4908467;29;20137;-81
2022/06/06 12:31:31;;;;;;;0.95;0.95;;;;;;;24.15;42.68;96769.84;4923113;29;20086;-79
2022/06/06 12:34:05;;;;;;;1.15;0.95;;;;;;;24.15;40.31;96762.66;4943707;29;20048;-82
2022/06/06 12:36:43;;;;;;;1.25;1.10;;;;;;;24.15;41.39;96762.66;4926226;29;20525;-81
2022/06/06 12:39:19;;;;;;;1.08;0.90;;;;;;;24.15;41.30;96760.00;4929141;29;20667;-80
2022/06/06 12:42:02;;;;;;;2.90;1.30;;;;;;;24.16;39.98;96752.78;4938120;29;20048;-80
2022/06/06 12:44:57;;;;;;;1.33;1.23;;;;;;;24.16;41.99;96750.94;4930425;29;20071;-80
2022/06/06 12:47:39;;;;;;;0.90;0.90;;;;;;;24.16;40.67;96742.13;4947372;29;20115;-81
2022/06/06 12:50:23;;;;;;;12.88;10.50;;;;;;;24.18;41.36;96748.81;4937341;29;20059;-79
2022/06/06 12:53:39;;;;;;;6.00;4.95;;;;;;;24.21;41.37;96747.47;4940440;29;20102;-79
2022/06/06 12:56:20;;;;;;;8.38;5.60;;;;;;;24.21;41.23;96737.59;4908657;29;20074;-79
2022/06/06 12:59:06;;;;;;;4.65;1.63;;;;;;;24.21;40.71;96736.81;4927970;29;20072;-80
2022/06/06 13:01:42;;;;;;;1.80;1.70;;;;;;;24.19;39.60;96734.41;4934881;29;20135;-79
2022/06/06 13:04:29;;;;;;;3.58;2.30;;;;;;;24.20;40.27;96735.19;4928815;29;20056;-81
2022/06/06 13:07:09;;;;;;;1.85;1.40;;;;;;;24.19;40.63;96734.41;4927379;29;20562;-80
2022/06/06 13:10:03;;;;;;;2.55;1.10;;;;;;;24.21;41.26;96721.63;4930169;29;20510;-80
2022/06/06 13:12:46;;;;;;;4.70;1.77;;;;;;;24.22;40.08;96717.06;4935281;29;20138;-80
2022/06/06 13:15:21;;;;;;;2.08;1.25;;;;;;;24.23;40.29;96726.69;4934732;29;20091;-80
2022/06/06 13:18:02;;;;;;;1.10;1.00;;;;;;;24.23;39.27;96714.16;4943753;29;20489;-81
2022/06/06 13:20:40;;;;;;;1.33;1.10;;;;;;;24.24;40.40;96722.94;4933177;29;20052;-79
2022/06/06 13:23:28;;;;;;;3.00;1.08;;;;;;;24.25;40.49;96722.69;4928775;29;20075;-79
2022/06/06 13:26:14;;;;;;;1.95;1.02;;;;;;;24.26;39.50;96721.59;4924900;29;20088;-80
2022/06/06 13:28:46;;;;;;;1.08;1.08;;;;;;;24.26;40.11;96724.28;4938521;29;20082;-79
2022/06/06 13:31:24;;;;;;;1.33;1.23;;;;;;;24.29;40.55;96717.59;4937684;29;20087;-77
2022/06/06 13:34:07;;;;;;;2.10;1.30;;;;;;;24.33;41.55;96717.88;4920067;29;20068;-76
2022/06/06 13:36:51;;;;;;;3.05;1.08;;;;;;;24.35;42.08;96708.53;4919321;29;20087;-78
2022/06/06 13:39:32;;;;;;;1.98;1.10;;;;;;;24.36;40.92;96717.34;4933745;29;20140;-77
2022/06/06 13:42:12;;;;;;;7.85;5.85;;;;;;;24.34;39.83;96703.50;4922782;29;20123;-77
2022/06/06 13:45:09;;;;;;;10.65;7.25;;;;;;;24.33;40.03;96697.34;4930710;29;20076;-79
2022/06/06 13:48:15;;;;;;;2.17;1.50;;;;;;;24.32;42.23;96702.97;4948317;29;20565;-78
2022/06/06 13:50:57;;;;;;;2.65;1.30;;;;;;;24.29;41.96;96708.81;4947017;29;20564;-79
2022/06/06 13:54:02;;;;;;;5.15;1.23;;;;;;;24.26;42.56;96702.94;4931096;29;20139;-80
2022/06/06 13:56:52;;;;;;;3.20;1.52;;;;;;;24.25;42.51;96695.25;4898445;29;20056;-80
2022/06/06 13:59:38;;;;;;;1.23;1.10;;;;;;;24.21;41.53;96700.28;4943610;29;20048;-78
2022/06/06 14:02:19;;;;;;;1.25;1.15;;;;;;;24.21;41.94;96694.97;4947452;29;20425;-80
2022/06/06 14:05:02;;;;;;;2.08;1.30;;;;;;;24.22;42.75;96701.09;4947135;29;20510;-81
2022/06/06 14:07:46;;;;;;;2.08;1.20;;;;;;;24.23;42.01;96700.84;4939565;29;20119;-83
2022/06/06 14:10:18;;;;;;;1.85;0.95;;;;;;;24.22;41.43;96693.88;4952827;23;20048;-77
2022/06/06 14:13:00;;;;;;;1.48;1.30;;;;;;;24.22;42.09;96691.22;4918896;29;20573;-77
2022/06/06 14:15:29;;;;;;;1.10;1.10;;;;;;;24.21;42.43;96700.28;4926224;29;20052;-77
2022/06/06 14:18:03;;;;;;;1.80;1.40;;;;;;;24.21;42.24;96684.31;4926613;29;20044;-77
2022/06/06 14:20:45;;;;;;;1.40;1.30;;;;;;;24.23;42.30;96694.72;4932414;29;20418;-77
2022/06/06 14:23:21;;;;;;;1.83;1.20;;;;;;;24.24;42.59;96689.09;4954435;29;20051;-78
2022/06/06 14:25:52;;;;;;;1.25;0.95;;;;;;;24.27;42.06;96688.56;4946382;29;20051;-77
2022/06/06 14:28:58;;;;;;;1.60;1.33;;;;;;;24.30;43.99;96686.44;4925919;29;20060;-79
2022/06/06 14:31:57;;;;;;;1.20;1.10;;;;;;;24.34;42.05;96677.63;4925716;29;20067;-80
2022/06/06 14:34:36;;;;;;;3.47;1.27;;;;;;;24.36;42.17;96685.34;4926977;29;20092;-77
2022/06/06 14:37:12;;;;;;;1.13;1.02;;;;;;;24.38;41.55;96677.88;4903992;29;20238;-77
2022/06/06 14:39:44;;;;;;;1.30;1.20;;;;;;;24.38;41.48;96683.22;4924442;29;20143;-77
2022/06/06 14:42:13;;;;;;;;;;;;;;;24.38;41.75;96683.22;4949368;29;20067;-77
2022/06/06 14:44:46;;;;;;;1.55;1.13;;;;;;;24.33;40.92;96683.22;4956449;28;19927;-78
2022/06/06 14:47:19;;;;;;;2.05;1.20;;;;;;;24.31;42.80;96682.69;4931605;29;20422;-78
2022/06/06 14:50:45;;;;;;;1.92;1.33;;;;;;;24.26;41.12;96681.63;4944631;29;20094;-78
2022/06/06 14:52:40;;;;;;;2.70;1.25;;;;;;;24.24;41.63;96682.97;4951587;28;20082;-79
2022/06/06 14:55:09;;;;;;;1.88;1.05;;;;;;;24.21;42.84;96678.97;4956851;28;20139;-79
2022/06/06 14:57:37;;;;;;;2.75;1.02;;;;;;;24.21;42.03;96681.63;4957874;28;20078;-78
2022/06/06 15:00:09;;;;;;;3.30;1.27;;;;;;;24.20;41.62;96676.56;4944906;28;20093;-78
2022/06/06 15:03:01;;;;;;;1.73;1.40;;;;;;;24.19;41.34;96678.44;4926141;29;20032;-79
2022/06/06 15:05:37;;;;;;;1.10;1.10;;;;;;;24.18;41.48;96679.53;4936955;29;20052;-78
2022/06/06 15:08:14;;;;;;;4.65;1.50;;;;;;;24.18;41.77;96676.03;4941030;28;20055;-78
2022/06/06 15:10:47;;;;;;;2.63;1.30;;;;;;;24.13;43.08;96676.84;4946982;29;20119;-79
2022/06/06 15:13:17;;;;;;;1.27;1.10;;;;;;;24.10;43.69;96682.72;4937664;29;20036;-79
2022/06/06 15:15:47;;;;;;;1.70;1.38;;;;;;;24.08;44.14;96676.84;4944385;28;20231;-79
2022/06/06 15:18:22;;;;;;;2.10;1.30;;;;;;;24.07;42.69;96675.22;4959051;28;20063;-78
2022/06/06 15:20:53;;;;;;;2.20;1.13;;;;;;;24.07;44.00;96677.88;4939898;29;20088;-78